首页
METAR-TAF:

METAR-TAF

机场 :

Petawawa, 安大略省, 加拿大

纬度: 45-57N, 经度: 077-19W, 海拔: 130米

当前天气观测

该预报发布于37分钟前的18:00 UTC
风速8节,风向西转西南,有时为15节阵风
温度 27°C
湿度 51%
气压 1011 hPa
能見度: 14.5公里
多云层高于4900英尺
多云层高于6300英尺
多云层高于7500英尺

METAR: CYWA 261800Z AUTO 25008G15KT 9SM BKN049 BKN063 BKN075 27/16 A2984 RMK PCPN 0.5MM PAST HR SLP107

时间: 14:37 (18:37 UTC)

预报

该预报发布于1小时和7分钟前的17:30 UTC
预报有效从26日的 18点(UTC)到 27日的 06点(UTC)
风速10节,风向西,有时为20节阵风
能見度: 10公里
多云层高于4000英尺
短暂存在
从 26日的 18点(UTC)到 26日的 22点(UTC)
能見度: 4.8公里
小阵雨, 轻雾
几率 40%
从 26日的 18点(UTC)到 26日的 22点(UTC)
风速20节,风向多变,有时为30节阵风
能見度: 1.6公里
多云层高于800英尺
阴天层高于3000英尺, 积雨云.
雷暴, 大雨, 轻雾
从 26日的 2200点(UTC)
风速8节,风向西
能見度: 10公里
多云层高于4000英尺

TAF: CYWA 261730Z 2618/2706 27010G20KT P6SM BKN040 TEMPO 2618/2622 3SM -SHRA BR PROB40 2618/2622 VRB20G30KT 1SM +TSRA BR BKN008 OVC030CB FM262200 26008KT P6SM BKN040 RMK FCST BASED ON AUTO OBS. NXT FCST BY 270000Z

超过4000个机场的气象观测和天气预报(METAR&TAF报告)。

可查询的气象台以黄色和红色小点在地图上表示。

将鼠标移到小点上方,可查看气象台名称。

然后点击查看天气观测和预报。

如需切换地图:点击带黑十字的绿色按钮放大地图;点击带横线的绿色按钮缩小地图;或者点击绿色箭头查看邻近地区的地图。


METAR-TAF: